sensor_id;sensor_type;location;lat;lon;timestamp;temperature;humidity
46037;DHT22;31769;49.304;8.428;2023-06-14T00:02:32;19.90;60.00
46037;DHT22;31769;49.304;8.428;2023-06-14T00:05:33;19.80;60.10
46037;DHT22;31769;49.304;8.428;2023-06-14T00:08:39;19.80;60.30
46037;DHT22;31769;49.304;8.428;2023-06-14T00:11:41;19.80;60.30
46037;DHT22;31769;49.304;8.428;2023-06-14T00:14:41;19.80;60.10
46037;DHT22;31769;49.304;8.428;2023-06-14T00:17:42;19.80;60.00
46037;DHT22;31769;49.304;8.428;2023-06-14T00:20:47;19.80;59.80
46037;DHT22;31769;49.304;8.428;2023-06-14T00:23:48;19.80;59.80
46037;DHT22;31769;49.304;8.428;2023-06-14T00:26:49;19.70;60.00
46037;DHT22;31769;49.304;8.428;2023-06-14T00:29:50;19.70;60.10
46037;DHT22;31769;49.304;8.428;2023-06-14T00:32:51;19.70;60.30
46037;DHT22;31769;49.304;8.428;2023-06-14T00:35:52;19.70;60.50
46037;DHT22;31769;49.304;8.428;2023-06-14T00:38:54;19.60;60.80
46037;DHT22;31769;49.304;8.428;2023-06-14T00:41:56;19.60;60.70
46037;DHT22;31769;49.304;8.428;2023-06-14T00:44:58;19.60;60.80
46037;DHT22;31769;49.304;8.428;2023-06-14T00:47:58;19.60;60.90
46037;DHT22;31769;49.304;8.428;2023-06-14T00:51:00;19.50;61.20
46037;DHT22;31769;49.304;8.428;2023-06-14T00:54:04;19.50;61.10
46037;DHT22;31769;49.304;8.428;2023-06-14T00:57:05;19.40;62.40
46037;DHT22;31769;49.304;8.428;2023-06-14T01:00:06;19.20;63.50
46037;DHT22;31769;49.304;8.428;2023-06-14T01:03:09;19.00;64.50
46037;DHT22;31769;49.304;8.428;2023-06-14T01:06:31;18.70;65.30
46037;DHT22;31769;49.304;8.428;2023-06-14T01:09:45;18.60;66.10
46037;DHT22;31769;49.304;8.428;2023-06-14T01:15:55;18.50;66.40
46037;DHT22;31769;49.304;8.428;2023-06-14T01:18:56;18.60;66.40
46037;DHT22;31769;49.304;8.428;2023-06-14T01:22:02;18.50;66.70
46037;DHT22;31769;49.304;8.428;2023-06-14T01:25:03;18.40;66.90
46037;DHT22;31769;49.304;8.428;2023-06-14T01:28:06;18.40;67.50
46037;DHT22;31769;49.304;8.428;2023-06-14T01:31:11;18.30;67.80
46037;DHT22;31769;49.304;8.428;2023-06-14T01:34:13;18.20;68.30
46037;DHT22;31769;49.304;8.428;2023-06-14T01:37:14;18.10;68.60
46037;DHT22;31769;49.304;8.428;2023-06-14T01:40:15;18.20;69.00
46037;DHT22;31769;49.304;8.428;2023-06-14T01:43:18;18.00;69.10
46037;DHT22;31769;49.304;8.428;2023-06-14T01:46:19;18.00;69.60
46037;DHT22;31769;49.304;8.428;2023-06-14T01:49:20;17.90;70.10
46037;DHT22;31769;49.304;8.428;2023-06-14T01:52:21;17.80;70.40
46037;DHT22;31769;49.304;8.428;2023-06-14T01:55:24;17.70;70.80
46037;DHT22;31769;49.304;8.428;2023-06-14T01:58:25;17.60;71.40
46037;DHT22;31769;49.304;8.428;2023-06-14T02:01:26;17.50;71.70
46037;DHT22;31769;49.304;8.428;2023-06-14T02:04:27;17.40;72.20
46037;DHT22;31769;49.304;8.428;2023-06-14T02:07:27;17.30;72.60
46037;DHT22;31769;49.304;8.428;2023-06-14T02:10:28;17.30;73.20
46037;DHT22;31769;49.304;8.428;2023-06-14T02:13:29;17.50;73.70
46037;DHT22;31769;49.304;8.428;2023-06-14T02:16:30;17.20;74.00
46037;DHT22;31769;49.304;8.428;2023-06-14T02:19:31;17.10;74.10
46037;DHT22;31769;49.304;8.428;2023-06-14T02:22:31;17.10;74.20
46037;DHT22;31769;49.304;8.428;2023-06-14T02:25:33;17.20;74.50
46037;DHT22;31769;49.304;8.428;2023-06-14T02:28:33;17.10;74.40
46037;DHT22;31769;49.304;8.428;2023-06-14T02:31:35;17.30;74.90
46037;DHT22;31769;49.304;8.428;2023-06-14T02:34:36;17.10;75.20
46037;DHT22;31769;49.304;8.428;2023-06-14T02:37:37;17.00;76.00
46037;DHT22;31769;49.304;8.428;2023-06-14T02:40:37;17.00;75.80
46037;DHT22;31769;49.304;8.428;2023-06-14T02:43:39;17.00;75.90
46037;DHT22;31769;49.304;8.428;2023-06-14T02:46:40;17.00;76.00
46037;DHT22;31769;49.304;8.428;2023-06-14T02:49:41;17.10;76.00
46037;DHT22;31769;49.304;8.428;2023-06-14T02:52:42;17.00;76.40
46037;DHT22;31769;49.304;8.428;2023-06-14T02:55:44;16.90;76.70
46037;DHT22;31769;49.304;8.428;2023-06-14T02:58:47;17.50;77.70
46037;DHT22;31769;49.304;8.428;2023-06-14T03:01:49;16.80;78.00
46037;DHT22;31769;49.304;8.428;2023-06-14T03:04:49;16.60;78.60
46037;DHT22;31769;49.304;8.428;2023-06-14T03:07:53;16.60;79.00
46037;DHT22;31769;49.304;8.428;2023-06-14T03:10:54;16.60;79.20
46037;DHT22;31769;49.304;8.428;2023-06-14T03:13:57;16.70;79.30
46037;DHT22;31769;49.304;8.428;2023-06-14T03:17:00;16.60;79.50
46037;DHT22;31769;49.304;8.428;2023-06-14T03:20:02;16.70;79.60
46037;DHT22;31769;49.304;8.428;2023-06-14T03:23:04;16.70;79.60
46037;DHT22;31769;49.304;8.428;2023-06-14T03:26:06;16.70;79.90
46037;DHT22;31769;49.304;8.428;2023-06-14T03:29:07;16.60;80.20
46037;DHT22;31769;49.304;8.428;2023-06-14T03:32:08;16.70;80.50
46037;DHT22;31769;49.304;8.428;2023-06-14T03:35:14;16.60;80.50
46037;DHT22;31769;49.304;8.428;2023-06-14T03:38:19;16.70;80.60
46037;DHT22;31769;49.304;8.428;2023-06-14T03:41:21;16.70;80.50
46037;DHT22;31769;49.304;8.428;2023-06-14T03:44:23;16.70;80.80
46037;DHT22;31769;49.304;8.428;2023-06-14T03:47:24;16.80;80.40
46037;DHT22;31769;49.304;8.428;2023-06-14T03:50:24;16.90;80.30
46037;DHT22;31769;49.304;8.428;2023-06-14T03:53:25;16.90;80.20
46037;DHT22;31769;49.304;8.428;2023-06-14T03:56:28;17.00;80.10
46037;DHT22;31769;49.304;8.428;2023-06-14T03:59:29;17.00;80.00
46037;DHT22;31769;49.304;8.428;2023-06-14T04:02:30;16.90;80.00
46037;DHT22;31769;49.304;8.428;2023-06-14T04:05:31;17.10;79.90
46037;DHT22;31769;49.304;8.428;2023-06-14T04:12:48;17.20;80.10
46037;DHT22;31769;49.304;8.428;2023-06-14T04:15:51;17.40;79.40
46037;DHT22;31769;49.304;8.428;2023-06-14T04:18:58;17.50;79.20
46037;DHT22;31769;49.304;8.428;2023-06-14T04:21:59;17.40;78.80
46037;DHT22;31769;49.304;8.428;2023-06-14T04:25:02;17.90;78.60
46037;DHT22;31769;49.304;8.428;2023-06-14T04:28:03;17.70;78.50
46037;DHT22;31769;49.304;8.428;2023-06-14T04:31:04;17.80;78.20
46037;DHT22;31769;49.304;8.428;2023-06-14T04:34:06;17.90;77.90
46037;DHT22;31769;49.304;8.428;2023-06-14T04:37:08;18.00;77.50
46037;DHT22;31769;49.304;8.428;2023-06-14T04:40:12;18.10;77.10
46037;DHT22;31769;49.304;8.428;2023-06-14T04:43:14;18.10;77.00
46037;DHT22;31769;49.304;8.428;2023-06-14T04:46:18;18.20;76.80
46037;DHT22;31769;49.304;8.428;2023-06-14T04:49:19;18.30;77.00
46037;DHT22;31769;49.304;8.428;2023-06-14T04:52:20;18.40;76.70
46037;DHT22;31769;49.304;8.428;2023-06-14T04:55:21;18.50;76.20
46037;DHT22;31769;49.304;8.428;2023-06-14T04:58:22;18.60;76.20
46037;DHT22;31769;49.304;8.428;2023-06-14T05:01:23;18.70;76.00
46037;DHT22;31769;49.304;8.428;2023-06-14T05:04:24;18.80;76.40
46037;DHT22;31769;49.304;8.428;2023-06-14T05:07:26;18.90;76.50
46037;DHT22;31769;49.304;8.428;2023-06-14T05:10:27;18.90;76.60
46037;DHT22;31769;49.304;8.428;2023-06-14T05:13:28;18.90;75.80
46037;DHT22;31769;49.304;8.428;2023-06-14T05:16:30;19.00;75.90
46037;DHT22;31769;49.304;8.428;2023-06-14T05:19:30;19.10;76.10
46037;DHT22;31769;49.304;8.428;2023-06-14T05:22:31;18.90;76.40
46037;DHT22;31769;49.304;8.428;2023-06-14T05:25:32;19.00;76.30
46037;DHT22;31769;49.304;8.428;2023-06-14T05:28:32;19.00;76.30
46037;DHT22;31769;49.304;8.428;2023-06-14T05:31:33;19.00;76.10
46037;DHT22;31769;49.304;8.428;2023-06-14T05:34:34;19.10;76.50
46037;DHT22;31769;49.304;8.428;2023-06-14T05:37:34;19.20;76.00
46037;DHT22;31769;49.304;8.428;2023-06-14T05:40:35;19.50;75.40
46037;DHT22;31769;49.304;8.428;2023-06-14T05:43:36;19.60;74.90
46037;DHT22;31769;49.304;8.428;2023-06-14T05:46:36;19.80;75.00
46037;DHT22;31769;49.304;8.428;2023-06-14T05:49:37;20.00;74.00
46037;DHT22;31769;49.304;8.428;2023-06-14T05:52:38;20.10;73.90
46037;DHT22;31769;49.304;8.428;2023-06-14T05:55:38;20.30;73.60
46037;DHT22;31769;49.304;8.428;2023-06-14T05:58:39;20.20;73.60
46037;DHT22;31769;49.304;8.428;2023-06-14T06:01:40;20.20;73.50
46037;DHT22;31769;49.304;8.428;2023-06-14T06:04:41;20.20;73.40
46037;DHT22;31769;49.304;8.428;2023-06-14T06:07:41;20.20;73.20
46037;DHT22;31769;49.304;8.428;2023-06-14T06:10:43;20.30;72.70
46037;DHT22;31769;49.304;8.428;2023-06-14T06:13:44;20.40;72.70
46037;DHT22;31769;49.304;8.428;2023-06-14T06:16:44;20.60;72.40
46037;DHT22;31769;49.304;8.428;2023-06-14T06:19:45;20.80;72.20
46037;DHT22;31769;49.304;8.428;2023-06-14T06:22:46;20.90;71.90
46037;DHT22;31769;49.304;8.428;2023-06-14T06:25:47;20.90;71.90
46037;DHT22;31769;49.304;8.428;2023-06-14T06:28:48;21.00;71.80
46037;DHT22;31769;49.304;8.428;2023-06-14T06:31:48;21.10;70.70
46037;DHT22;31769;49.304;8.428;2023-06-14T06:34:49;21.20;69.90
46037;DHT22;31769;49.304;8.428;2023-06-14T06:37:50;21.40;69.50
46037;DHT22;31769;49.304;8.428;2023-06-14T06:40:51;21.50;69.10
46037;DHT22;31769;49.304;8.428;2023-06-14T06:43:51;21.70;69.10
46037;DHT22;31769;49.304;8.428;2023-06-14T06:46:53;21.70;69.00
46037;DHT22;31769;49.304;8.428;2023-06-14T06:49:53;21.80;69.10
46037;DHT22;31769;49.304;8.428;2023-06-14T06:52:54;21.90;68.90
46037;DHT22;31769;49.304;8.428;2023-06-14T06:55:55;22.00;69.20
46037;DHT22;31769;49.304;8.428;2023-06-14T06:58:56;22.00;69.20
46037;DHT22;31769;49.304;8.428;2023-06-14T07:01:56;22.10;69.00
46037;DHT22;31769;49.304;8.428;2023-06-14T07:04:57;22.20;69.20
46037;DHT22;31769;49.304;8.428;2023-06-14T07:07:58;22.30;69.30
46037;DHT22;31769;49.304;8.428;2023-06-14T07:10:58;22.40;68.70
46037;DHT22;31769;49.304;8.428;2023-06-14T07:13:59;22.50;68.80
46037;DHT22;31769;49.304;8.428;2023-06-14T07:17:00;22.50;68.60
46037;DHT22;31769;49.304;8.428;2023-06-14T07:20:02;22.50;67.90
46037;DHT22;31769;49.304;8.428;2023-06-14T07:23:08;22.60;67.70
46037;DHT22;31769;49.304;8.428;2023-06-14T07:26:09;22.60;68.00
46037;DHT22;31769;49.304;8.428;2023-06-14T07:29:09;22.60;67.90
46037;DHT22;31769;49.304;8.428;2023-06-14T07:32:10;22.60;67.70
46037;DHT22;31769;49.304;8.428;2023-06-14T07:35:11;22.50;67.90
46037;DHT22;31769;49.304;8.428;2023-06-14T07:38:11;22.60;67.90
46037;DHT22;31769;49.304;8.428;2023-06-14T07:41:12;22.80;67.10
46037;DHT22;31769;49.304;8.428;2023-06-14T07:44:13;23.00;66.50
46037;DHT22;31769;49.304;8.428;2023-06-14T07:47:13;23.10;65.70
46037;DHT22;31769;49.304;8.428;2023-06-14T07:50:14;23.20;65.40
46037;DHT22;31769;49.304;8.428;2023-06-14T07:53:15;23.20;65.30
46037;DHT22;31769;49.304;8.428;2023-06-14T07:56:15;23.30;65.00
46037;DHT22;31769;49.304;8.428;2023-06-14T07:59:16;23.40;64.20
46037;DHT22;31769;49.304;8.428;2023-06-14T08:02:17;23.60;63.50
46037;DHT22;31769;49.304;8.428;2023-06-14T08:05:18;23.70;63.70
46037;DHT22;31769;49.304;8.428;2023-06-14T08:08:19;23.80;63.50
46037;DHT22;31769;49.304;8.428;2023-06-14T08:11:19;23.80;63.30
46037;DHT22;31769;49.304;8.428;2023-06-14T08:14:21;23.90;63.50
46037;DHT22;31769;49.304;8.428;2023-06-14T08:17:22;23.80;62.80
46037;DHT22;31769;49.304;8.428;2023-06-14T08:20:22;23.90;63.10
46037;DHT22;31769;49.304;8.428;2023-06-14T08:23:23;23.90;62.20
46037;DHT22;31769;49.304;8.428;2023-06-14T08:26:23;23.90;61.20
46037;DHT22;31769;49.304;8.428;2023-06-14T08:29:24;24.00;61.30
46037;DHT22;31769;49.304;8.428;2023-06-14T08:32:25;24.10;60.90
46037;DHT22;31769;49.304;8.428;2023-06-14T08:35:26;24.10;60.50
46037;DHT22;31769;49.304;8.428;2023-06-14T08:38:26;24.10;60.10
46037;DHT22;31769;49.304;8.428;2023-06-14T08:41:28;24.30;60.00
46037;DHT22;31769;49.304;8.428;2023-06-14T08:44:30;24.40;59.80
46037;DHT22;31769;49.304;8.428;2023-06-14T08:47:31;24.40;59.50
46037;DHT22;31769;49.304;8.428;2023-06-14T08:50:40;24.50;59.40
46037;DHT22;31769;49.304;8.428;2023-06-14T08:53:43;24.50;59.30
46037;DHT22;31769;49.304;8.428;2023-06-14T08:56:43;24.40;58.70
46037;DHT22;31769;49.304;8.428;2023-06-14T08:59:47;24.40;58.80
46037;DHT22;31769;49.304;8.428;2023-06-14T09:02:49;24.30;58.80
46037;DHT22;31769;49.304;8.428;2023-06-14T09:05:50;24.30;59.20
46037;DHT22;31769;49.304;8.428;2023-06-14T09:08:52;24.40;59.10
46037;DHT22;31769;49.304;8.428;2023-06-14T09:11:54;24.40;58.60
46037;DHT22;31769;49.304;8.428;2023-06-14T09:14:55;24.60;58.20
46037;DHT22;31769;49.304;8.428;2023-06-14T09:17:56;24.60;57.90
46037;DHT22;31769;49.304;8.428;2023-06-14T09:20:56;24.60;57.50
46037;DHT22;31769;49.304;8.428;2023-06-14T09:23:57;24.70;57.10
46037;DHT22;31769;49.304;8.428;2023-06-14T09:26:59;24.60;57.20
46037;DHT22;31769;49.304;8.428;2023-06-14T09:30:00;24.70;57.00
46037;DHT22;31769;49.304;8.428;2023-06-14T09:33:01;24.90;56.70
46037;DHT22;31769;49.304;8.428;2023-06-14T09:36:03;25.00;56.30
46037;DHT22;31769;49.304;8.428;2023-06-14T09:39:04;25.20;56.20
46037;DHT22;31769;49.304;8.428;2023-06-14T09:42:18;25.50;56.10
46037;DHT22;31769;49.304;8.428;2023-06-14T09:45:24;25.70;55.90
46037;DHT22;31769;49.304;8.428;2023-06-14T09:48:25;25.70;54.20
46037;DHT22;31769;49.304;8.428;2023-06-14T09:51:26;25.60;53.00
46037;DHT22;31769;49.304;8.428;2023-06-14T09:54:28;25.40;52.80
46037;DHT22;31769;49.304;8.428;2023-06-14T09:57:30;25.60;53.30
46037;DHT22;31769;49.304;8.428;2023-06-14T10:00:34;25.60;52.80
46037;DHT22;31769;49.304;8.428;2023-06-14T10:03:36;25.50;52.80
46037;DHT22;31769;49.304;8.428;2023-06-14T10:06:43;25.50;52.40
46037;DHT22;31769;49.304;8.428;2023-06-14T10:09:47;25.30;52.50
46037;DHT22;31769;49.304;8.428;2023-06-14T10:12:50;25.30;52.60
46037;DHT22;31769;49.304;8.428;2023-06-14T10:19:37;25.50;52.20
46037;DHT22;31769;49.304;8.428;2023-06-14T10:22:49;25.60;51.70
46037;DHT22;31769;49.304;8.428;2023-06-14T10:25:54;25.60;52.00
46037;DHT22;31769;49.304;8.428;2023-06-14T10:29:01;25.50;51.90
46037;DHT22;31769;49.304;8.428;2023-06-14T10:32:07;25.50;51.60
46037;DHT22;31769;49.304;8.428;2023-06-14T10:35:08;25.50;52.30
46037;DHT22;31769;49.304;8.428;2023-06-14T10:38:11;25.70;51.50
46037;DHT22;31769;49.304;8.428;2023-06-14T10:41:13;25.80;51.00
46037;DHT22;31769;49.304;8.428;2023-06-14T10:47:24;26.00;50.40
46037;DHT22;31769;49.304;8.428;2023-06-14T10:50:28;26.00;50.30
46037;DHT22;31769;49.304;8.428;2023-06-14T10:53:40;26.00;50.30
46037;DHT22;31769;49.304;8.428;2023-06-14T10:56:48;25.90;50.50
46037;DHT22;31769;49.304;8.428;2023-06-14T10:59:49;25.90;50.80
46037;DHT22;31769;49.304;8.428;2023-06-14T11:02:56;26.00;51.10
46037;DHT22;31769;49.304;8.428;2023-06-14T11:06:15;26.30;50.50
46037;DHT22;31769;49.304;8.428;2023-06-14T11:12:57;26.60;49.60
46037;DHT22;31769;49.304;8.428;2023-06-14T11:15:59;26.60;49.70
46037;DHT22;31769;49.304;8.428;2023-06-14T11:19:01;26.70;50.00
46037;DHT22;31769;49.304;8.428;2023-06-14T11:22:03;26.70;49.80
46037;DHT22;31769;49.304;8.428;2023-06-14T11:25:07;26.80;49.50
46037;DHT22;31769;49.304;8.428;2023-06-14T11:28:08;26.80;49.10
46037;DHT22;31769;49.304;8.428;2023-06-14T11:31:09;26.90;48.60
46037;DHT22;31769;49.304;8.428;2023-06-14T11:34:10;27.10;48.60
46037;DHT22;31769;49.304;8.428;2023-06-14T11:37:12;27.20;48.10
46037;DHT22;31769;49.304;8.428;2023-06-14T11:43:19;27.20;47.80
46037;DHT22;31769;49.304;8.428;2023-06-14T11:46:25;27.20;47.90
46037;DHT22;31769;49.304;8.428;2023-06-14T11:49:26;27.30;47.70
46037;DHT22;31769;49.304;8.428;2023-06-14T11:52:28;27.30;47.30
46037;DHT22;31769;49.304;8.428;2023-06-14T11:55:29;27.60;47.30
46037;DHT22;31769;49.304;8.428;2023-06-14T11:58:30;28.00;47.00
46037;DHT22;31769;49.304;8.428;2023-06-14T12:01:31;28.20;47.20
46037;DHT22;31769;49.304;8.428;2023-06-14T12:04:32;28.20;47.70
46037;DHT22;31769;49.304;8.428;2023-06-14T12:07:33;28.50;47.70
46037;DHT22;31769;49.304;8.428;2023-06-14T12:10:41;28.20;48.20
46037;DHT22;31769;49.304;8.428;2023-06-14T12:13:45;27.90;47.70
46037;DHT22;31769;49.304;8.428;2023-06-14T12:16:46;27.50;48.10
46037;DHT22;31769;49.304;8.428;2023-06-14T12:19:48;27.80;48.40
46037;DHT22;31769;49.304;8.428;2023-06-14T12:22:53;28.40;47.40
46037;DHT22;31769;49.304;8.428;2023-06-14T12:25:53;28.90;46.90
46037;DHT22;31769;49.304;8.428;2023-06-14T12:28:54;28.90;46.80
46037;DHT22;31769;49.304;8.428;2023-06-14T12:31:55;29.30;46.50
46037;DHT22;31769;49.304;8.428;2023-06-14T12:34:57;29.60;46.60
46037;DHT22;31769;49.304;8.428;2023-06-14T12:37:58;30.40;45.70
46037;DHT22;31769;49.304;8.428;2023-06-14T12:40:58;30.00;45.30
46037;DHT22;31769;49.304;8.428;2023-06-14T12:43:59;29.70;45.30
46037;DHT22;31769;49.304;8.428;2023-06-14T12:47:01;29.40;45.80
46037;DHT22;31769;49.304;8.428;2023-06-14T12:50:02;29.70;45.60
46037;DHT22;31769;49.304;8.428;2023-06-14T12:53:03;32.20;43.90
46037;DHT22;31769;49.304;8.428;2023-06-14T12:56:04;34.80;41.50
46037;DHT22;31769;49.304;8.428;2023-06-14T12:59:04;37.00;39.40
46037;DHT22;31769;49.304;8.428;2023-06-14T13:02:17;39.10;37.40
46037;DHT22;31769;49.304;8.428;2023-06-14T13:05:18;40.70;36.30
46037;DHT22;31769;49.304;8.428;2023-06-14T13:08:19;41.40;35.10
46037;DHT22;31769;49.304;8.428;2023-06-14T13:11:20;41.80;34.20
46037;DHT22;31769;49.304;8.428;2023-06-14T13:14:20;42.10;33.90
46037;DHT22;31769;49.304;8.428;2023-06-14T13:17:21;43.20;32.90
46037;DHT22;31769;49.304;8.428;2023-06-14T13:20:22;43.10;32.90
46037;DHT22;31769;49.304;8.428;2023-06-14T13:23:22;44.50;32.30
46037;DHT22;31769;49.304;8.428;2023-06-14T13:26:24;45.20;32.00
46037;DHT22;31769;49.304;8.428;2023-06-14T13:29:25;47.30;30.70
46037;DHT22;31769;49.304;8.428;2023-06-14T13:32:26;47.50;30.40
46037;DHT22;31769;49.304;8.428;2023-06-14T13:35:28;48.30;30.40
46037;DHT22;31769;49.304;8.428;2023-06-14T13:38:28;49.80;29.60
46037;DHT22;31769;49.304;8.428;2023-06-14T13:41:29;48.30;29.50
46037;DHT22;31769;49.304;8.428;2023-06-14T13:44:32;44.40;30.40
46037;DHT22;31769;49.304;8.428;2023-06-14T13:47:32;42.00;31.80
46037;DHT22;31769;49.304;8.428;2023-06-14T13:50:33;42.90;32.20
46037;DHT22;31769;49.304;8.428;2023-06-14T13:53:34;44.70;30.80
46037;DHT22;31769;49.304;8.428;2023-06-14T13:56:34;47.20;30.10
46037;DHT22;31769;49.304;8.428;2023-06-14T13:59:35;48.00;29.10
46037;DHT22;31769;49.304;8.428;2023-06-14T14:02:35;46.40;29.70
46037;DHT22;31769;49.304;8.428;2023-06-14T14:05:36;43.00;30.70
46037;DHT22;31769;49.304;8.428;2023-06-14T14:08:37;40.10;32.30
46037;DHT22;31769;49.304;8.428;2023-06-14T14:11:38;37.50;34.10
46037;DHT22;31769;49.304;8.428;2023-06-14T14:14:40;35.60;35.80
46037;DHT22;31769;49.304;8.428;2023-06-14T14:17:41;34.50;36.60
46037;DHT22;31769;49.304;8.428;2023-06-14T14:20:41;34.50;36.60
46037;DHT22;31769;49.304;8.428;2023-06-14T14:23:42;35.00;36.30
46037;DHT22;31769;49.304;8.428;2023-06-14T14:26:43;36.50;35.90
46037;DHT22;31769;49.304;8.428;2023-06-14T14:29:43;41.50;33.40
46037;DHT22;31769;49.304;8.428;2023-06-14T14:32:44;46.50;30.90
46037;DHT22;31769;49.304;8.428;2023-06-14T14:35:45;46.60;29.80
46037;DHT22;31769;49.304;8.428;2023-06-14T14:38:48;44.40;30.60
46037;DHT22;31769;49.304;8.428;2023-06-14T14:41:50;43.90;31.00
46037;DHT22;31769;49.304;8.428;2023-06-14T14:44:50;44.60;31.10
46037;DHT22;31769;49.304;8.428;2023-06-14T14:47:51;47.20;30.20
46037;DHT22;31769;49.304;8.428;2023-06-14T14:50:52;48.60;29.80
46037;DHT22;31769;49.304;8.428;2023-06-14T14:53:52;49.50;29.30
46037;DHT22;31769;49.304;8.428;2023-06-14T14:56:54;49.80;29.00
46037;DHT22;31769;49.304;8.428;2023-06-14T14:59:54;48.90;29.20
46037;DHT22;31769;49.304;8.428;2023-06-14T15:02:55;50.00;29.00
46037;DHT22;31769;49.304;8.428;2023-06-14T15:05:56;51.50;28.60
46037;DHT22;31769;49.304;8.428;2023-06-14T15:08:58;51.60;28.10
46037;DHT22;31769;49.304;8.428;2023-06-14T15:11:58;52.40;28.00
46037;DHT22;31769;49.304;8.428;2023-06-14T15:14:59;53.50;27.70
46037;DHT22;31769;49.304;8.428;2023-06-14T15:18:00;53.50;27.60
46037;DHT22;31769;49.304;8.428;2023-06-14T15:21:00;54.10;27.50
46037;DHT22;31769;49.304;8.428;2023-06-14T15:24:01;54.70;27.20
46037;DHT22;31769;49.304;8.428;2023-06-14T15:27:02;54.20;27.10
46037;DHT22;31769;49.304;8.428;2023-06-14T15:30:03;53.60;27.30
46037;DHT22;31769;49.304;8.428;2023-06-14T15:33:04;52.80;27.30
46037;DHT22;31769;49.304;8.428;2023-06-14T15:36:06;53.00;27.40
46037;DHT22;31769;49.304;8.428;2023-06-14T15:39:09;53.70;27.10
46037;DHT22;31769;49.304;8.428;2023-06-14T15:42:10;52.90;27.10
46037;DHT22;31769;49.304;8.428;2023-06-14T15:45:12;53.10;27.30
46037;DHT22;31769;49.304;8.428;2023-06-14T15:48:12;53.70;27.20
46037;DHT22;31769;49.304;8.428;2023-06-14T15:51:13;54.40;27.20
46037;DHT22;31769;49.304;8.428;2023-06-14T15:54:14;54.90;27.40
46037;DHT22;31769;49.304;8.428;2023-06-14T15:57:15;55.50;26.70
46037;DHT22;31769;49.304;8.428;2023-06-14T16:00:16;55.20;26.60
46037;DHT22;31769;49.304;8.428;2023-06-14T16:03:16;52.00;27.00
46037;DHT22;31769;49.304;8.428;2023-06-14T16:06:17;47.40;28.10
46037;DHT22;31769;49.304;8.428;2023-06-14T16:09:18;47.30;28.30
46037;DHT22;31769;49.304;8.428;2023-06-14T16:12:18;49.00;28.00
46037;DHT22;31769;49.304;8.428;2023-06-14T16:15:21;50.20;27.70
46037;DHT22;31769;49.304;8.428;2023-06-14T16:18:22;50.40;27.70
46037;DHT22;31769;49.304;8.428;2023-06-14T16:21:23;50.40;27.60
46037;DHT22;31769;49.304;8.428;2023-06-14T16:24:23;50.70;27.40
46037;DHT22;31769;49.304;8.428;2023-06-14T16:27:24;50.40;27.50
46037;DHT22;31769;49.304;8.428;2023-06-14T16:30:25;50.80;27.40
46037;DHT22;31769;49.304;8.428;2023-06-14T16:33:26;50.30;27.60
46037;DHT22;31769;49.304;8.428;2023-06-14T16:36:27;49.80;27.60
46037;DHT22;31769;49.304;8.428;2023-06-14T16:39:27;48.70;27.70
46037;DHT22;31769;49.304;8.428;2023-06-14T16:42:28;48.40;28.00
46037;DHT22;31769;49.304;8.428;2023-06-14T16:45:29;47.70;28.10
46037;DHT22;31769;49.304;8.428;2023-06-14T16:48:29;47.10;28.40
46037;DHT22;31769;49.304;8.428;2023-06-14T16:51:30;47.30;28.40
46037;DHT22;31769;49.304;8.428;2023-06-14T16:54:31;47.60;28.30
46037;DHT22;31769;49.304;8.428;2023-06-14T16:57:31;46.50;28.50
46037;DHT22;31769;49.304;8.428;2023-06-14T17:00:32;43.60;29.50
46037;DHT22;31769;49.304;8.428;2023-06-14T17:03:33;40.40;31.10
46037;DHT22;31769;49.304;8.428;2023-06-14T17:06:34;38.50;32.70
46037;DHT22;31769;49.304;8.428;2023-06-14T17:09:35;37.70;33.20
46037;DHT22;31769;49.304;8.428;2023-06-14T17:12:36;38.20;32.70
46037;DHT22;31769;49.304;8.428;2023-06-14T17:15:36;39.80;32.20
46037;DHT22;31769;49.304;8.428;2023-06-14T17:18:37;40.20;31.70
46037;DHT22;31769;49.304;8.428;2023-06-14T17:21:38;39.90;31.80
46037;DHT22;31769;49.304;8.428;2023-06-14T17:24:38;39.60;32.30
46037;DHT22;31769;49.304;8.428;2023-06-14T17:27:39;39.70;32.40
46037;DHT22;31769;49.304;8.428;2023-06-14T17:30:40;39.50;32.50
46037;DHT22;31769;49.304;8.428;2023-06-14T17:33:41;39.20;32.70
46037;DHT22;31769;49.304;8.428;2023-06-14T17:36:42;38.60;33.10
46037;DHT22;31769;49.304;8.428;2023-06-14T17:39:46;37.80;33.70
46037;DHT22;31769;49.304;8.428;2023-06-14T17:42:47;37.30;34.00
46037;DHT22;31769;49.304;8.428;2023-06-14T17:45:48;36.60;34.40
46037;DHT22;31769;49.304;8.428;2023-06-14T17:48:48;35.60;35.20
46037;DHT22;31769;49.304;8.428;2023-06-14T17:51:49;34.40;36.00
46037;DHT22;31769;49.304;8.428;2023-06-14T17:54:50;33.30;37.10
46037;DHT22;31769;49.304;8.428;2023-06-14T17:57:51;32.50;37.70
46037;DHT22;31769;49.304;8.428;2023-06-14T18:00:52;32.00;38.20
46037;DHT22;31769;49.304;8.428;2023-06-14T18:03:52;31.40;39.20
46037;DHT22;31769;49.304;8.428;2023-06-14T18:06:53;30.90;39.50
46037;DHT22;31769;49.304;8.428;2023-06-14T18:09:54;30.50;40.00
46037;DHT22;31769;49.304;8.428;2023-06-14T18:12:54;29.70;40.70
46037;DHT22;31769;49.304;8.428;2023-06-14T18:15:56;29.00;41.60
46037;DHT22;31769;49.304;8.428;2023-06-14T18:18:58;28.30;42.50
46037;DHT22;31769;49.304;8.428;2023-06-14T18:21:59;27.90;43.30
46037;DHT22;31769;49.304;8.428;2023-06-14T18:24:59;27.60;44.00
46037;DHT22;31769;49.304;8.428;2023-06-14T18:28:00;27.30;44.10
46037;DHT22;31769;49.304;8.428;2023-06-14T18:31:01;27.10;44.50
46037;DHT22;31769;49.304;8.428;2023-06-14T18:34:01;26.80;45.00
46037;DHT22;31769;49.304;8.428;2023-06-14T18:37:02;26.60;45.50
46037;DHT22;31769;49.304;8.428;2023-06-14T18:40:03;26.40;45.90
46037;DHT22;31769;49.304;8.428;2023-06-14T18:43:04;26.20;46.30
46037;DHT22;31769;49.304;8.428;2023-06-14T18:46:04;26.10;46.90
46037;DHT22;31769;49.304;8.428;2023-06-14T18:49:05;25.90;47.20
46037;DHT22;31769;49.304;8.428;2023-06-14T18:52:08;25.70;47.70
46037;DHT22;31769;49.304;8.428;2023-06-14T18:55:08;25.60;47.80
46037;DHT22;31769;49.304;8.428;2023-06-14T18:58:10;25.50;48.00
46037;DHT22;31769;49.304;8.428;2023-06-14T19:01:10;25.50;48.00
46037;DHT22;31769;49.304;8.428;2023-06-14T19:04:13;25.40;48.10
46037;DHT22;31769;49.304;8.428;2023-06-14T19:07:13;25.30;48.00
46037;DHT22;31769;49.304;8.428;2023-06-14T19:10:14;25.20;48.20
46037;DHT22;31769;49.304;8.428;2023-06-14T19:13:15;25.00;48.30
46037;DHT22;31769;49.304;8.428;2023-06-14T19:16:15;25.00;48.70
46037;DHT22;31769;49.304;8.428;2023-06-14T19:19:16;24.80;48.80
46037;DHT22;31769;49.304;8.428;2023-06-14T19:22:17;24.60;49.20
46037;DHT22;31769;49.304;8.428;2023-06-14T19:25:18;24.50;49.40
46037;DHT22;31769;49.304;8.428;2023-06-14T19:28:19;24.30;49.50